createdAt,value
2022-08-30T00:01:42.355Z,101843.56
2022-08-30T00:04:27.793Z,101841.63
2022-08-30T00:07:13.269Z,101846.56
2022-08-30T00:09:58.755Z,101845.78
2022-08-30T00:12:43.819Z,101837.97
2022-08-30T00:15:30.123Z,101844.09
2022-08-30T00:18:17.975Z,101842.84
2022-08-30T00:21:04.087Z,101845.38
2022-08-30T00:23:49.365Z,101849.44
2022-08-30T00:26:34.526Z,101850.44
2022-08-30T00:29:19.893Z,101859.06
2022-08-30T00:32:05.576Z,101865.28
2022-08-30T00:34:51.834Z,101867.34
2022-08-30T00:37:37.346Z,101863.06
2022-08-30T00:40:27.252Z,101860.66
2022-08-30T00:43:38.998Z,101866.50
2022-08-30T00:46:24.553Z,101866.31
2022-08-30T00:49:12.227Z,101869.53
2022-08-30T00:51:57.796Z,101869.28
2022-08-30T00:54:45.319Z,101868.78
2022-08-30T00:57:31.472Z,101871.81
2022-08-30T01:00:17.228Z,101873.47
2022-08-30T01:03:03.713Z,101873.13
2022-08-30T01:05:50.397Z,101873.97
2022-08-30T01:08:35.869Z,101873.44
2022-08-30T01:11:23.893Z,101876.09
2022-08-30T01:14:11.539Z,101885.81
2022-08-30T01:16:57.714Z,101890.53
2022-08-30T01:20:04.625Z,101880.91
2022-08-30T01:22:50.092Z,101884.34
2022-08-30T01:25:37.243Z,101880.81
2022-08-30T01:28:24.040Z,101887.09
2022-08-30T01:31:09.604Z,101880.22
2022-08-30T01:33:54.654Z,101875.38
2022-08-30T01:36:44.731Z,101874.44
2022-08-30T01:39:30.573Z,101869.94
2022-08-30T01:42:17.252Z,101876.53
2022-08-30T01:45:02.381Z,101875.66
2022-08-30T01:47:47.627Z,101875.19
2022-08-30T01:50:33.109Z,101879.13
2022-08-30T01:53:18.692Z,101878.19
2022-08-30T01:56:05.482Z,101875.53
2022-08-30T01:58:50.919Z,101880.06
2022-08-30T02:01:37.024Z,101874.38
2022-08-30T02:04:22.722Z,101875.00
2022-08-30T02:07:08.465Z,101877.31
2022-08-30T02:09:53.763Z,101870.94
2022-08-30T02:12:38.993Z,101872.59
2022-08-30T02:15:24.402Z,101874.16
2022-08-30T02:18:10.653Z,101870.03
2022-08-30T02:20:56.109Z,101868.19
2022-08-30T02:23:42.017Z,101862.72
2022-08-30T02:26:27.280Z,101867.13
2022-08-30T02:29:12.776Z,101864.47
2022-08-30T02:31:58.169Z,101862.16
2022-08-30T02:34:44.571Z,101865.13
2022-08-30T02:37:30.040Z,101867.31
2022-08-30T02:40:15.565Z,101862.63
2022-08-30T02:43:01.146Z,101867.22
2022-08-30T02:45:46.235Z,101866.81
2022-08-30T02:48:31.645Z,101866.53
2022-08-30T02:51:17.565Z,101871.72
2022-08-30T02:54:02.862Z,101869.31
2022-08-30T02:56:49.087Z,101868.31
2022-08-30T02:59:36.923Z,101871.50
2022-08-30T03:02:22.456Z,101873.75
2022-08-30T03:05:09.105Z,101874.69
2022-08-30T03:07:54.470Z,101861.09
2022-08-30T03:10:39.694Z,101866.84
2022-08-30T03:13:25.342Z,101873.50
2022-08-30T03:16:10.910Z,101860.06
2022-08-30T03:18:56.433Z,101869.41
2022-08-30T03:21:41.523Z,101873.78
2022-08-30T03:24:27.013Z,101874.38
2022-08-30T03:27:12.893Z,101871.09
2022-08-30T03:29:58.378Z,101869.53
2022-08-30T03:32:44.056Z,101875.38
2022-08-30T03:35:33.253Z,101873.88
2022-08-30T03:38:18.375Z,101875.53
2022-08-30T03:41:05.550Z,101873.88
2022-08-30T03:43:51.128Z,101875.69
2022-08-30T03:46:37.664Z,101868.72
2022-08-30T03:49:24.397Z,101875.13
2022-08-30T03:52:09.574Z,101866.25
2022-08-30T03:54:55.092Z,101860.28
2022-08-30T03:57:43.424Z,101868.91
2022-08-30T04:00:29.164Z,101867.50
2022-08-30T04:03:14.635Z,101865.91
2022-08-30T04:06:00.885Z,101871.19
2022-08-30T04:08:46.236Z,101866.91
2022-08-30T04:11:32.032Z,101867.69
2022-08-30T04:14:17.984Z,101867.03
2022-08-30T04:17:03.403Z,101868.38
2022-08-30T04:19:48.952Z,101873.09
2022-08-30T04:22:34.055Z,101881.97
2022-08-30T04:25:19.601Z,101879.31
2022-08-30T04:28:05.516Z,101878.53
2022-08-30T04:30:50.970Z,101882.47
2022-08-30T04:33:36.413Z,101886.75
2022-08-30T04:36:23.328Z,101889.91
2022-08-30T04:39:08.708Z,101882.69
2022-08-30T04:41:54.145Z,101883.38
2022-08-30T04:44:39.324Z,101892.56
2022-08-30T04:47:24.475Z,101889.59
2022-08-30T04:50:10.846Z,101883.19
2022-08-30T04:52:56.259Z,101893.97
2022-08-30T04:55:41.704Z,101898.72
2022-08-30T04:58:26.932Z,101902.34
2022-08-30T05:01:20.428Z,101897.69
2022-08-30T05:04:09.058Z,101895.13
2022-08-30T05:06:54.481Z,101890.03
2022-08-30T05:09:39.783Z,101896.78
2022-08-30T05:12:25.504Z,101899.44
2022-08-30T05:15:11.618Z,101904.59
2022-08-30T05:17:57.449Z,101908.88
2022-08-30T05:20:43.131Z,101913.84
2022-08-30T05:23:28.680Z,101915.09
2022-08-30T05:26:16.522Z,101913.66
2022-08-30T05:29:01.579Z,101921.22
2022-08-30T05:31:46.696Z,101920.47
2022-08-30T05:34:32.045Z,101915.69
2022-08-30T05:37:17.408Z,101913.94
2022-08-30T05:40:03.922Z,101913.69
2022-08-30T05:42:56.230Z,101908.81
2022-08-30T05:45:42.135Z,101918.28
2022-08-30T05:48:28.120Z,101914.22
2022-08-30T05:51:15.417Z,101919.47
2022-08-30T05:54:01.162Z,101918.44
2022-08-30T05:56:49.721Z,101923.34
2022-08-30T05:59:34.864Z,101923.69
2022-08-30T06:02:20.440Z,101925.44
2022-08-30T06:05:06.026Z,101929.38
2022-08-30T06:07:51.183Z,101925.16
2022-08-30T06:10:36.275Z,101918.56
2022-08-30T06:13:22.347Z,101929.78
2022-08-30T06:16:07.920Z,101927.53
2022-08-30T06:18:53.733Z,101923.94
2022-08-30T06:21:39.788Z,101927.56
2022-08-30T06:24:41.173Z,101922.63
2022-08-30T06:27:31.123Z,101930.59
2022-08-30T06:30:16.762Z,101915.00
2022-08-30T06:33:04.341Z,101925.53
2022-08-30T06:35:58.496Z,101926.81
2022-08-30T06:38:45.239Z,101928.84
2022-08-30T06:41:31.872Z,101927.72
2022-08-30T06:44:17.606Z,101925.88
2022-08-30T06:47:03.063Z,101929.31
2022-08-30T06:49:48.473Z,101928.13
2022-08-30T06:52:34.095Z,101923.16
2022-08-30T06:55:20.098Z,101929.44
2022-08-30T06:58:05.447Z,101930.38
2022-08-30T07:00:50.817Z,101940.19
2022-08-30T07:03:36.030Z,101933.72
2022-08-30T07:06:21.411Z,101933.81
2022-08-30T07:09:06.727Z,101932.09
2022-08-30T07:11:52.284Z,101935.84
2022-08-30T07:14:38.116Z,101939.78
2022-08-30T07:17:41.999Z,101940.19
2022-08-30T07:20:27.408Z,101923.41
2022-08-30T07:23:13.701Z,101930.81
2022-08-30T07:25:58.771Z,101924.50
2022-08-30T07:28:44.668Z,101930.53
2022-08-30T07:31:30.251Z,101930.81
2022-08-30T07:34:15.422Z,101938.13
2022-08-30T07:37:00.826Z,101933.28
2022-08-30T07:39:47.976Z,101935.97
2022-08-30T07:42:33.405Z,101939.91
2022-08-30T07:45:18.873Z,101945.44
2022-08-30T07:48:05.561Z,101946.19
2022-08-30T07:50:53.711Z,101945.88
2022-08-30T07:53:42.587Z,101945.19
2022-08-30T07:56:28.221Z,101946.25
2022-08-30T07:59:13.579Z,101948.75
2022-08-30T08:01:58.957Z,101948.75
2022-08-30T08:04:44.621Z,101953.78
2022-08-30T08:07:30.290Z,101950.94
2022-08-30T08:10:16.094Z,101955.19
2022-08-30T08:13:01.422Z,101949.13
2022-08-30T08:15:46.680Z,101950.66
2022-08-30T08:18:32.126Z,101952.13
2022-08-30T08:21:17.799Z,101959.75
2022-08-30T08:24:03.344Z,101960.16
2022-08-30T08:26:48.644Z,101955.03
2022-08-30T08:29:33.900Z,101955.81
2022-08-30T08:32:19.431Z,101956.19
2022-08-30T08:35:05.225Z,101955.06
2022-08-30T08:37:50.350Z,101955.00
2022-08-30T08:40:38.405Z,101954.69
2022-08-30T08:43:25.662Z,101962.88
2022-08-30T08:46:13.928Z,101960.81
2022-08-30T08:49:02.481Z,101959.38
2022-08-30T08:52:06.846Z,101960.16
2022-08-30T08:54:52.296Z,101955.94
2022-08-30T08:57:37.925Z,101960.25
2022-08-30T09:00:23.090Z,101957.81
2022-08-30T09:03:12.680Z,101954.66
2022-08-30T09:06:11.651Z,101959.78
2022-08-30T09:08:57.010Z,101957.25
2022-08-30T09:11:44.333Z,101960.78
2022-08-30T09:14:33.627Z,101965.94
2022-08-30T09:17:20.650Z,101967.63
2022-08-30T09:20:06.309Z,101966.41
2022-08-30T09:22:51.567Z,101969.94
2022-08-30T09:25:49.861Z,101961.34
2022-08-30T09:28:44.162Z,101966.19
2022-08-30T09:31:33.953Z,101962.84
2022-08-30T09:34:20.847Z,101948.31
2022-08-30T09:37:22.346Z,101966.06
2022-08-30T09:40:10.969Z,101956.38
2022-08-30T09:43:05.491Z,101959.25
2022-08-30T09:46:00.209Z,101966.31
2022-08-30T09:48:46.124Z,101966.66
2022-08-30T09:51:45.539Z,101965.69
2022-08-30T09:55:09.269Z,101963.34
2022-08-30T09:58:18.462Z,101965.88
2022-08-30T10:01:10.637Z,101959.66
2022-08-30T10:04:00.223Z,101967.72
2022-08-30T10:06:58.589Z,101963.31
2022-08-30T10:09:52.191Z,101964.47
2022-08-30T10:12:43.429Z,101963.59
2022-08-30T10:15:50.948Z,101962.59
2022-08-30T10:18:43.072Z,101969.63
2022-08-30T10:21:35.563Z,101974.28
2022-08-30T10:24:24.183Z,101967.28
2022-08-30T10:27:12.854Z,101952.25
2022-08-30T10:30:06.414Z,101951.97
2022-08-30T10:33:01.540Z,101945.88
2022-08-30T10:35:52.512Z,101951.28
2022-08-30T10:38:39.585Z,101948.25
2022-08-30T10:41:27.795Z,101957.59
2022-08-30T10:44:19.970Z,101965.28
2022-08-30T10:47:23.982Z,101960.94
2022-08-30T10:50:30.377Z,101970.13
2022-08-30T10:53:20.203Z,101967.25
2022-08-30T10:56:07.812Z,101971.16
2022-08-30T10:58:54.451Z,101974.06
2022-08-30T11:01:58.564Z,101977.63
2022-08-30T11:04:46.388Z,101978.41
2022-08-30T11:07:31.344Z,101979.41
2022-08-30T11:10:19.451Z,101970.41
2022-08-30T11:13:09.560Z,101976.78
2022-08-30T11:16:01.298Z,101969.00
2022-08-30T11:18:52.323Z,101968.09
2022-08-30T11:21:38.983Z,101966.47
2022-08-30T11:24:25.155Z,101961.34
2022-08-30T11:27:32.521Z,101961.81
2022-08-30T11:30:23.945Z,101966.66
2022-08-30T11:33:12.912Z,101960.41
2022-08-30T11:35:58.149Z,101967.56
2022-08-30T11:38:43.588Z,101959.56
2022-08-30T11:41:31.005Z,101960.88
2022-08-30T11:44:22.041Z,101959.38
2022-08-30T11:47:25.637Z,101966.31
2022-08-30T11:50:17.827Z,101954.19
2022-08-30T11:53:18.943Z,101952.22
2022-08-30T11:56:06.703Z,101955.81
2022-08-30T11:58:58.125Z,101952.19
2022-08-30T12:01:50.350Z,101935.78
2022-08-30T12:04:44.985Z,101948.19
2022-08-30T12:07:52.886Z,101949.91
2022-08-30T12:10:41.133Z,101948.91
2022-08-30T12:13:35.276Z,101953.69
2022-08-30T12:16:35.113Z,101953.34
2022-08-30T12:19:21.097Z,101949.84
2022-08-30T12:22:07.209Z,101947.66
2022-08-30T12:24:53.600Z,101934.16
2022-08-30T12:27:39.385Z,101935.34
2022-08-30T12:30:27.936Z,101940.38
2022-08-30T12:33:14.456Z,101935.75
2022-08-30T12:36:01.302Z,101933.66
2022-08-30T12:38:48.862Z,101929.41
2022-08-30T12:41:34.474Z,101928.91
2022-08-30T12:44:29.502Z,101928.84
2022-08-30T12:47:17.986Z,101924.28
2022-08-30T12:50:04.512Z,101924.97
2022-08-30T12:53:01.620Z,101925.91
2022-08-30T12:55:54.419Z,101905.78
2022-08-30T12:58:47.553Z,101907.16
2022-08-30T13:01:37.013Z,101900.59
2022-08-30T13:04:26.846Z,101895.03
2022-08-30T13:07:13.192Z,101902.09
2022-08-30T13:10:05.588Z,101884.41
2022-08-30T13:13:01.243Z,101892.63
2022-08-30T13:15:48.925Z,101892.28
2022-08-30T13:18:34.057Z,101885.81
2022-08-30T13:21:42.243Z,101882.44
2022-08-30T13:24:27.889Z,101879.81
2022-08-30T13:27:13.461Z,101890.69
2022-08-30T13:30:06.610Z,101885.84
2022-08-30T13:32:52.475Z,101870.50
2022-08-30T13:35:38.133Z,101873.41
2022-08-30T13:38:24.490Z,101876.63
2022-08-30T13:41:10.800Z,101875.22
2022-08-30T13:44:13.222Z,101865.25
2022-08-30T13:47:32.134Z,101861.00
2022-08-30T13:50:05.381Z,101851.06
2022-08-30T13:52:50.703Z,101853.03
2022-08-30T13:55:39.238Z,101863.59
2022-08-30T13:58:26.138Z,101862.88
2022-08-30T14:01:13.132Z,101861.59
2022-08-30T14:04:15.515Z,101860.09
2022-08-30T14:07:20.175Z,101864.81
2022-08-30T14:13:12.019Z,101858.78
2022-08-30T14:19:06.440Z,101861.06
2022-08-30T14:21:52.879Z,101865.88
2022-08-30T14:24:38.001Z,101867.97
2022-08-30T14:27:24.685Z,101865.53
2022-08-30T14:30:12.457Z,101874.63
2022-08-30T14:32:57.833Z,101876.00
2022-08-30T14:35:43.089Z,101881.06
2022-08-30T14:38:28.307Z,101889.25
2022-08-30T14:41:13.729Z,101873.88
2022-08-30T14:43:59.104Z,101877.28
2022-08-30T14:46:44.379Z,101865.94
2022-08-30T14:49:29.801Z,101871.91
2022-08-30T14:52:15.621Z,101865.03
2022-08-30T14:55:08.596Z,101871.31
2022-08-30T14:57:54.760Z,101867.75
2022-08-30T15:00:40.184Z,101869.50
2022-08-30T15:03:25.741Z,101860.94
2022-08-30T15:06:11.354Z,101859.34
2022-08-30T15:08:56.786Z,101851.53
2022-08-30T15:11:44.359Z,101854.41
2022-08-30T15:14:32.111Z,101863.28
2022-08-30T15:17:19.204Z,101851.31
2022-08-30T15:20:08.582Z,101856.69
2022-08-30T15:22:56.265Z,101855.47
2022-08-30T15:25:42.332Z,101863.03
2022-08-30T15:28:27.572Z,101864.91
2022-08-30T15:31:13.034Z,101865.53
2022-08-30T15:33:58.534Z,101856.53
2022-08-30T15:36:44.440Z,101850.50
2022-08-30T15:39:29.713Z,101847.25
2022-08-30T15:42:19.445Z,101846.47
2022-08-30T15:45:05.456Z,101850.56
2022-08-30T15:47:51.784Z,101853.44
2022-08-30T15:50:37.213Z,101853.81
2022-08-30T15:53:22.614Z,101851.66
2022-08-30T15:56:08.379Z,101862.72
2022-08-30T15:58:53.628Z,101861.59
2022-08-30T16:01:38.858Z,101855.25
2022-08-30T16:04:24.167Z,101849.00
2022-08-30T16:07:11.261Z,101854.66
2022-08-30T16:09:56.679Z,101842.56
2022-08-30T16:12:42.329Z,101836.34
2022-08-30T16:15:28.776Z,101838.25
2022-08-30T16:18:14.611Z,101838.81
2022-08-30T16:21:10.945Z,101837.63
2022-08-30T16:23:57.375Z,101844.06
2022-08-30T16:26:43.299Z,101856.53
2022-08-30T16:29:28.609Z,101844.97
2022-08-30T16:32:14.897Z,101850.94
2022-08-30T16:35:00.682Z,101846.41
2022-08-30T16:37:46.235Z,101845.28
2022-08-30T16:40:31.755Z,101847.94
2022-08-30T16:43:17.552Z,101844.94
2022-08-30T16:46:04.556Z,101835.56
2022-08-30T16:48:52.112Z,101838.09
2022-08-30T16:51:37.551Z,101839.34
2022-08-30T16:54:23.120Z,101839.09
2022-08-30T16:57:08.393Z,101835.53
2022-08-30T16:59:54.929Z,101831.09
2022-08-30T17:02:44.417Z,101836.19
2022-08-30T17:05:47.198Z,101828.69
2022-08-30T17:08:35.180Z,101832.94
2022-08-30T17:11:21.162Z,101836.06
2022-08-30T17:14:07.668Z,101846.13
2022-08-30T17:16:53.659Z,101844.25
2022-08-30T17:19:42.195Z,101846.00
2022-08-30T17:22:28.220Z,101846.75
2022-08-30T17:25:14.264Z,101864.34
2022-08-30T17:28:00.840Z,101857.72
2022-08-30T17:30:46.010Z,101855.97
2022-08-30T17:33:32.337Z,101861.72
2022-08-30T17:36:17.845Z,101860.22
2022-08-30T17:39:11.206Z,101864.28
2022-08-30T17:41:56.934Z,101863.84
2022-08-30T17:44:42.450Z,101868.19
2022-08-30T17:47:28.184Z,101867.25
2022-08-30T17:50:14.678Z,101873.72
2022-08-30T17:53:00.058Z,101873.03
2022-08-30T17:55:48.795Z,101875.91
2022-08-30T17:58:34.703Z,101873.50
2022-08-30T18:01:20.854Z,101885.66
2022-08-30T18:04:06.647Z,101889.94
2022-08-30T18:06:52.239Z,101892.16
2022-08-30T18:09:38.061Z,101897.78
2022-08-30T18:12:23.664Z,101904.53
2022-08-30T18:15:12.776Z,101904.94
2022-08-30T18:18:01.156Z,101905.22
2022-08-30T18:20:49.828Z,101913.88
2022-08-30T18:23:35.372Z,101911.34
2022-08-30T18:26:24.361Z,101920.16
2022-08-30T18:29:10.027Z,101923.88
2022-08-30T18:31:55.226Z,101930.41
2022-08-30T18:34:42.402Z,101929.56
2022-08-30T18:37:28.056Z,101932.97
2022-08-30T18:40:18.635Z,101939.38
2022-08-30T18:43:07.809Z,101937.75
2022-08-30T18:45:52.987Z,101936.34
2022-08-30T18:48:38.149Z,101939.63
2022-08-30T18:51:23.457Z,101946.31
2022-08-30T18:54:08.937Z,101942.75
2022-08-30T18:56:54.993Z,101946.31
2022-08-30T18:59:41.923Z,101955.09
2022-08-30T19:02:27.968Z,101954.34
2022-08-30T19:05:16.031Z,101953.09
2022-08-30T19:08:02.636Z,101957.91
2022-08-30T19:10:48.157Z,101958.34
2022-08-30T19:13:33.790Z,101951.94
2022-08-30T19:16:20.275Z,101947.13
2022-08-30T19:19:05.581Z,101954.66
2022-08-30T19:21:51.804Z,101954.84
2022-08-30T19:24:37.343Z,101955.63
2022-08-30T19:27:37.542Z,101959.38
2022-08-30T19:30:29.407Z,101957.56
2022-08-30T19:33:17.182Z,101957.22
2022-08-30T19:36:03.234Z,101966.47
2022-08-30T19:38:49.767Z,101956.78
2022-08-30T19:41:35.195Z,101964.75
2022-08-30T19:44:20.598Z,101972.44
2022-08-30T19:47:06.447Z,101971.81
2022-08-30T19:49:51.521Z,101975.44
2022-08-30T19:52:37.511Z,101969.06
2022-08-30T19:55:28.231Z,101970.78
2022-08-30T19:58:15.691Z,101973.91
2022-08-30T20:01:11.771Z,101969.97
2022-08-30T20:04:01.678Z,101973.88
2022-08-30T20:06:47.856Z,101966.44
2022-08-30T20:09:33.426Z,101969.00
2022-08-30T20:12:19.265Z,101967.72
2022-08-30T20:15:09.302Z,101968.91
2022-08-30T20:18:14.754Z,101967.25
2022-08-30T20:21:00.312Z,101965.72
2022-08-30T20:23:47.421Z,101959.41
2022-08-30T20:26:34.360Z,101963.25
2022-08-30T20:29:20.284Z,101964.31
2022-08-30T20:32:05.366Z,101975.28
2022-08-30T20:34:53.136Z,101976.25
2022-08-30T20:37:38.631Z,101978.56
2022-08-30T20:40:23.688Z,101966.97
2022-08-30T20:43:09.119Z,101976.22
2022-08-30T20:45:55.285Z,101977.16
2022-08-30T20:48:40.794Z,101979.16
2022-08-30T20:51:27.475Z,101973.34
2022-08-30T20:54:13.212Z,101975.72
2022-08-30T20:56:58.542Z,101979.25
2022-08-30T20:59:44.017Z,101972.91
2022-08-30T21:02:29.383Z,101977.94
2022-08-30T21:05:15.590Z,101975.66
2022-08-30T21:08:00.809Z,101974.91
2022-08-30T21:10:51.511Z,101982.91
2022-08-30T21:13:37.115Z,101978.88
2022-08-30T21:16:22.359Z,101981.00
2022-08-30T21:19:07.647Z,101997.56
2022-08-30T21:21:53.018Z,101994.94
2022-08-30T21:24:38.241Z,102002.19
2022-08-30T21:27:23.638Z,102009.91
2022-08-30T21:30:09.612Z,102017.50
2022-08-30T21:32:55.149Z,102012.94
2022-08-30T21:36:03.666Z,102020.34
2022-08-30T21:38:49.430Z,102026.53
2022-08-30T21:41:35.664Z,102020.78
2022-08-30T21:44:22.553Z,102028.97
2022-08-30T21:47:07.788Z,102028.13
2022-08-30T21:49:53.375Z,102029.88
2022-08-30T21:52:38.654Z,102030.81
2022-08-30T21:55:24.208Z,102029.09
2022-08-30T21:58:09.872Z,102026.81
2022-08-30T22:00:55.050Z,102029.38
2022-08-30T22:03:42.569Z,102023.44
2022-08-30T22:06:31.116Z,102035.78
2022-08-30T22:09:18.828Z,102032.63
2022-08-30T22:12:05.056Z,102038.63
2022-08-30T22:14:52.170Z,102033.59
2022-08-30T22:17:37.381Z,102038.16
2022-08-30T22:20:22.775Z,102037.97
2022-08-30T22:23:10.088Z,102050.44
2022-08-30T22:25:56.169Z,102047.06
2022-08-30T22:28:41.724Z,102039.22
2022-08-30T22:31:27.226Z,102043.88
2022-08-30T22:34:12.806Z,102043.06
2022-08-30T22:36:58.662Z,102043.91
2022-08-30T22:39:44.102Z,102050.31
2022-08-30T22:42:29.501Z,102050.09
2022-08-30T22:45:14.958Z,102047.47
2022-08-30T22:48:00.399Z,102045.91
2022-08-30T22:50:45.543Z,102051.94
2022-08-30T22:53:30.901Z,102054.13
2022-08-30T22:56:20.366Z,102051.63
2022-08-30T22:59:05.996Z,102057.72
2022-08-30T23:01:51.491Z,102059.56
2022-08-30T23:04:37.463Z,102056.28
2022-08-30T23:07:22.712Z,102059.88
2022-08-30T23:10:09.033Z,102057.47
2022-08-30T23:12:55.283Z,102066.53
2022-08-30T23:15:40.321Z,102067.59
2022-08-30T23:18:25.954Z,102063.34
2022-08-30T23:21:17.813Z,102071.22
2022-08-30T23:24:22.238Z,102067.22
2022-08-30T23:27:26.240Z,102066.78
2022-08-30T23:30:30.934Z,102069.63
2022-08-30T23:33:34.978Z,102067.47
2022-08-30T23:36:38.753Z,102056.94
2022-08-30T23:39:42.767Z,102061.56
2022-08-30T23:42:46.851Z,102061.28
2022-08-30T23:45:50.957Z,102055.44
2022-08-30T23:48:54.835Z,102063.41
2022-08-30T23:51:58.737Z,102060.13
2022-08-30T23:55:02.712Z,102066.97
2022-08-30T23:58:06.841Z,102067.31
